createdAt,value
2018-08-28T00:02:10.937Z,18.20
2018-08-28T00:04:40.106Z,18.30
2018-08-28T00:07:09.447Z,18.30
2018-08-28T00:09:38.916Z,18.30
2018-08-28T00:12:08.521Z,18.30
2018-08-28T00:14:37.834Z,18.30
2018-08-28T00:17:07.069Z,18.20
2018-08-28T00:19:36.199Z,18.20
2018-08-28T00:22:05.390Z,18.10
2018-08-28T00:24:34.525Z,18.00
2018-08-28T00:27:03.657Z,18.10
2018-08-28T00:29:33.401Z,18.10
2018-08-28T00:32:02.567Z,18.00
2018-08-28T00:34:31.829Z,18.00
2018-08-28T00:37:00.929Z,18.00
2018-08-28T00:39:30.378Z,18.00
2018-08-28T00:41:59.546Z,17.90
2018-08-28T00:44:28.667Z,17.80
2018-08-28T00:46:57.810Z,17.80
2018-08-28T00:49:26.931Z,17.70
2018-08-28T00:51:56.094Z,17.50
2018-08-28T00:54:25.245Z,17.40
2018-08-28T00:56:54.341Z,17.30
2018-08-28T00:59:23.465Z,17.20
2018-08-28T01:01:52.609Z,17.20
2018-08-28T01:04:22.202Z,17.10
2018-08-28T01:06:51.510Z,17.00
2018-08-28T01:09:21.173Z,16.80
2018-08-28T01:11:50.610Z,16.70
2018-08-28T01:14:19.382Z,16.60
2018-08-28T01:16:48.505Z,16.40
2018-08-28T01:19:17.648Z,16.30
2018-08-28T01:21:46.778Z,16.20
2018-08-28T01:24:15.909Z,16.10
2018-08-28T01:26:45.046Z,16.00
2018-08-28T01:29:15.028Z,15.90
2018-08-28T01:31:44.140Z,15.90
2018-08-28T01:34:13.267Z,15.80
2018-08-28T01:36:42.749Z,15.70
2018-08-28T01:39:11.913Z,15.80
2018-08-28T01:41:41.027Z,15.80
2018-08-28T01:44:10.181Z,15.80
2018-08-28T01:46:39.278Z,15.70
2018-08-28T01:49:08.421Z,15.60
2018-08-28T01:51:37.538Z,15.50
2018-08-28T01:54:06.666Z,15.80
2018-08-28T01:56:35.842Z,15.70
2018-08-28T01:59:05.018Z,15.70
2018-08-28T02:01:34.131Z,15.70
2018-08-28T02:04:03.421Z,15.60
2018-08-28T02:06:33.086Z,15.40
2018-08-28T02:09:02.201Z,15.40
2018-08-28T02:11:31.341Z,15.40
2018-08-28T02:14:00.447Z,15.40
2018-08-28T02:16:30.242Z,15.30
2018-08-28T02:18:59.893Z,15.20
2018-08-28T02:21:29.063Z,15.00
2018-08-28T02:23:58.333Z,14.90
2018-08-28T02:26:27.465Z,14.80
2018-08-28T02:28:56.573Z,14.60
2018-08-28T02:31:25.719Z,14.60
2018-08-28T02:33:54.885Z,14.40
2018-08-28T02:36:24.699Z,14.40
2018-08-28T02:38:54.658Z,14.40
2018-08-28T02:41:23.783Z,14.20
2018-08-28T02:43:52.906Z,14.20
2018-08-28T02:46:22.073Z,14.50
2018-08-28T02:48:51.235Z,14.70
2018-08-28T02:51:20.361Z,14.60
2018-08-28T02:53:49.506Z,14.30
2018-08-28T02:56:18.649Z,14.20
2018-08-28T02:58:48.164Z,14.10
2018-08-28T03:01:17.325Z,14.00
2018-08-28T03:03:46.489Z,13.80
2018-08-28T03:06:16.141Z,13.80
2018-08-28T03:08:45.258Z,13.90
2018-08-28T03:11:14.493Z,14.00
2018-08-28T03:13:44.518Z,14.00
2018-08-28T03:16:13.931Z,14.00
2018-08-28T03:18:42.930Z,14.00
2018-08-28T03:21:12.083Z,13.90
2018-08-28T03:23:41.465Z,13.90
2018-08-28T03:26:10.966Z,13.90
2018-08-28T03:28:40.252Z,13.80
2018-08-28T03:31:09.442Z,13.80
2018-08-28T03:33:38.742Z,13.80
2018-08-28T03:36:07.853Z,13.70
2018-08-28T03:38:37.292Z,13.70
2018-08-28T03:41:06.430Z,13.60
2018-08-28T03:43:36.007Z,13.60
2018-08-28T03:46:05.157Z,13.60
2018-08-28T03:48:34.259Z,13.60
2018-08-28T03:51:03.394Z,13.70
2018-08-28T03:53:33.067Z,13.80
2018-08-28T03:56:02.175Z,13.90
2018-08-28T03:58:31.374Z,14.00
2018-08-28T04:01:00.515Z,14.00
2018-08-28T04:03:29.689Z,14.00
2018-08-28T04:05:58.805Z,14.00
2018-08-28T04:08:28.613Z,14.00
2018-08-28T04:10:57.737Z,14.10
2018-08-28T04:13:26.869Z,14.10
2018-08-28T04:15:55.996Z,14.10
2018-08-28T04:18:25.220Z,14.00
2018-08-28T04:20:54.843Z,13.90
2018-08-28T04:23:24.114Z,13.80
2018-08-28T04:25:54.415Z,13.60
2018-08-28T04:28:26.172Z,13.50
2018-08-28T04:30:55.724Z,13.50
2018-08-28T04:33:24.816Z,13.40
2018-08-28T04:35:53.937Z,13.40
2018-08-28T04:38:23.312Z,13.40
2018-08-28T04:40:52.423Z,13.30
2018-08-28T04:43:21.514Z,13.30
2018-08-28T04:45:50.694Z,13.40
2018-08-28T04:48:19.846Z,13.30
2018-08-28T04:50:48.983Z,13.40
2018-08-28T04:53:18.170Z,13.40
2018-08-28T04:55:47.982Z,13.40
2018-08-28T04:58:17.131Z,13.60
2018-08-28T05:00:46.351Z,13.70
2018-08-28T05:03:15.755Z,13.70
2018-08-28T05:05:44.922Z,13.80
2018-08-28T05:08:14.333Z,13.70
2018-08-28T05:10:43.462Z,13.70
2018-08-28T05:13:12.563Z,13.70
2018-08-28T05:15:41.942Z,13.70
2018-08-28T05:18:11.070Z,13.80
2018-08-28T05:20:40.330Z,13.90
2018-08-28T05:23:09.722Z,14.10
2018-08-28T05:25:39.602Z,14.20
2018-08-28T05:28:08.735Z,14.40
2018-08-28T05:30:37.915Z,14.60
2018-08-28T05:33:07.219Z,14.80
2018-08-28T05:35:36.346Z,15.10
2018-08-28T05:38:05.497Z,15.20
2018-08-28T05:40:34.606Z,15.30
2018-08-28T05:43:03.794Z,15.40
2018-08-28T05:45:32.915Z,15.60
2018-08-28T05:48:02.090Z,16.00
2018-08-28T05:50:31.202Z,16.50
2018-08-28T05:53:00.346Z,17.00
2018-08-28T05:55:29.573Z,17.40
2018-08-28T05:57:58.694Z,17.90
2018-08-28T06:00:27.822Z,18.50
2018-08-28T06:02:56.953Z,18.90
2018-08-28T06:05:26.026Z,19.30
2018-08-28T06:07:55.147Z,20.00
2018-08-28T06:10:24.954Z,20.40
2018-08-28T06:12:54.074Z,20.90
2018-08-28T06:15:23.183Z,21.30
2018-08-28T06:17:52.314Z,21.50
2018-08-28T06:20:21.567Z,21.70
2018-08-28T06:22:52.519Z,21.30
2018-08-28T06:25:21.695Z,21.10
2018-08-28T06:27:50.814Z,21.10
2018-08-28T06:30:19.969Z,21.20
2018-08-28T06:32:49.410Z,21.10
2018-08-28T06:35:18.651Z,21.30
2018-08-28T06:37:47.795Z,21.30
2018-08-28T06:40:16.936Z,21.20
2018-08-28T06:42:46.430Z,21.60
2018-08-28T06:45:18.380Z,21.80
2018-08-28T06:47:47.515Z,21.70
2018-08-28T06:50:16.631Z,22.60
2018-08-28T06:52:45.746Z,23.40
2018-08-28T06:55:15.472Z,24.00
2018-08-28T06:57:44.595Z,24.60
2018-08-28T07:00:13.706Z,25.30
2018-08-28T07:02:42.853Z,25.60
2018-08-28T07:05:11.982Z,25.90
2018-08-28T07:07:41.151Z,26.20
2018-08-28T07:10:10.302Z,26.30
2018-08-28T07:12:39.953Z,26.00
2018-08-28T07:15:09.519Z,25.90
2018-08-28T07:17:38.655Z,25.40
2018-08-28T07:20:07.970Z,25.70
2018-08-28T07:22:37.246Z,26.00
2018-08-28T07:25:06.859Z,25.80
2018-08-28T07:27:36.006Z,25.10
2018-08-28T07:30:06.089Z,24.80
2018-08-28T07:32:35.830Z,24.70
2018-08-28T07:35:05.702Z,25.80
2018-08-28T07:37:34.951Z,25.70
2018-08-28T07:40:04.752Z,25.20
2018-08-28T07:42:34.729Z,26.30
2018-08-28T07:45:04.533Z,27.00
2018-08-28T07:47:33.650Z,26.50
2018-08-28T07:50:02.972Z,26.80
2018-08-28T07:52:32.103Z,26.80
2018-08-28T07:55:01.223Z,25.60
2018-08-28T07:57:30.839Z,25.90
2018-08-28T07:59:59.962Z,25.90
2018-08-28T08:02:29.358Z,26.50
2018-08-28T08:04:58.930Z,27.10
2018-08-28T08:07:28.042Z,26.70
2018-08-28T08:09:57.150Z,26.70
2018-08-28T08:12:26.275Z,27.30
2018-08-28T08:14:55.394Z,26.90
2018-08-28T08:17:25.195Z,27.10
2018-08-28T08:19:54.333Z,28.00
2018-08-28T08:22:23.675Z,28.50
2018-08-28T08:24:52.938Z,28.40
2018-08-28T08:27:22.249Z,27.90
2018-08-28T08:29:50.999Z,28.40
2018-08-28T08:32:20.097Z,28.60
2018-08-28T08:34:49.202Z,28.30
2018-08-28T08:37:18.306Z,28.20
2018-08-28T08:39:47.450Z,27.90
2018-08-28T08:42:16.957Z,27.80
2018-08-28T08:44:46.200Z,27.90
2018-08-28T08:47:15.355Z,27.90
2018-08-28T08:49:44.475Z,28.20
2018-08-28T08:52:14.278Z,28.50
2018-08-28T08:54:43.738Z,28.00
2018-08-28T08:57:13.214Z,26.30
2018-08-28T08:59:42.378Z,27.00
2018-08-28T09:02:11.551Z,28.10
2018-08-28T09:04:41.290Z,28.50
2018-08-28T09:07:10.447Z,28.20
2018-08-28T09:09:39.615Z,28.60
2018-08-28T09:12:08.747Z,28.00
2018-08-28T09:14:37.835Z,27.10
2018-08-28T09:17:07.917Z,27.90
2018-08-28T09:19:37.503Z,29.10
2018-08-28T09:22:06.654Z,29.60
2018-08-28T09:24:35.497Z,28.10
2018-08-28T09:27:04.611Z,29.20
2018-08-28T09:29:34.201Z,29.90
2018-08-28T09:32:03.418Z,30.80
2018-08-28T09:34:32.523Z,31.50
2018-08-28T09:37:01.643Z,31.30
2018-08-28T09:39:30.797Z,31.00
2018-08-28T09:41:59.967Z,30.70
2018-08-28T09:44:29.257Z,31.10
2018-08-28T09:46:58.406Z,31.10
2018-08-28T09:49:27.515Z,30.80
2018-08-28T09:51:56.846Z,29.90
2018-08-28T09:54:26.017Z,30.20
2018-08-28T09:56:55.148Z,29.50
2018-08-28T09:59:24.306Z,29.60
2018-08-28T10:01:53.429Z,29.80
2018-08-28T10:04:22.691Z,31.60
2018-08-28T10:06:51.822Z,32.70
2018-08-28T10:09:20.935Z,32.40
2018-08-28T10:11:50.106Z,33.40
2018-08-28T10:14:19.261Z,33.00
2018-08-28T10:16:48.441Z,30.40
2018-08-28T10:19:17.567Z,32.00
2018-08-28T10:21:47.439Z,32.20
2018-08-28T10:24:16.807Z,30.90
2018-08-28T10:26:46.095Z,31.20
2018-08-28T10:29:14.984Z,32.30
2018-08-28T10:31:44.115Z,33.50
2018-08-28T10:34:13.218Z,33.00
2018-08-28T10:36:42.737Z,31.20
2018-08-28T10:39:11.880Z,28.90
2018-08-28T10:41:41.058Z,27.80
2018-08-28T10:44:10.851Z,29.00
2018-08-28T10:46:40.033Z,29.60
2018-08-28T10:49:09.088Z,29.90
2018-08-28T10:51:38.205Z,31.70
2018-08-28T10:54:07.619Z,32.40
2018-08-28T10:56:36.758Z,32.60
2018-08-28T10:59:06.842Z,32.90
2018-08-28T11:01:36.014Z,32.00
2018-08-28T11:04:05.130Z,31.90
2018-08-28T11:06:34.262Z,33.20
2018-08-28T11:09:03.618Z,34.20
2018-08-28T11:11:32.735Z,36.20
2018-08-28T11:14:01.926Z,35.10
2018-08-28T11:16:31.146Z,32.70
2018-08-28T11:19:00.778Z,32.50
2018-08-28T11:21:29.885Z,32.40
2018-08-28T11:23:59.041Z,33.30
2018-08-28T11:26:28.310Z,34.40
2018-08-28T11:28:57.418Z,33.70
2018-08-28T11:31:26.617Z,32.50
2018-08-28T11:33:55.922Z,32.80
2018-08-28T11:36:25.070Z,32.80
2018-08-28T11:38:54.198Z,30.40
2018-08-28T11:41:23.305Z,30.40
2018-08-28T11:43:52.465Z,28.60
2018-08-28T11:46:21.597Z,31.00
2018-08-28T11:48:50.714Z,32.40
2018-08-28T11:51:19.839Z,33.00
2018-08-28T11:53:48.952Z,33.30
2018-08-28T11:56:18.067Z,34.20
2018-08-28T11:58:47.190Z,34.50
2018-08-28T12:01:16.306Z,33.80
2018-08-28T12:03:45.438Z,32.90
2018-08-28T12:06:14.618Z,32.10
2018-08-28T12:08:44.322Z,33.40
2018-08-28T12:11:13.458Z,32.60
2018-08-28T12:13:42.650Z,33.10
2018-08-28T12:16:11.818Z,32.90
2018-08-28T12:18:40.958Z,33.00
2018-08-28T12:21:10.278Z,33.30
2018-08-28T12:23:39.441Z,31.60
2018-08-28T12:26:08.566Z,30.90
2018-08-28T12:28:37.342Z,30.00
2018-08-28T12:31:06.455Z,30.00
2018-08-28T12:33:35.566Z,30.20
2018-08-28T12:36:04.879Z,31.10
2018-08-28T12:38:34.182Z,31.50
2018-08-28T12:41:03.298Z,29.60
2018-08-28T12:43:32.468Z,30.80
2018-08-28T12:46:01.947Z,31.00
2018-08-28T12:48:31.298Z,29.40
2018-08-28T12:51:00.449Z,29.10
2018-08-28T12:53:29.566Z,29.10
2018-08-28T12:55:58.778Z,28.60
2018-08-28T12:58:27.882Z,28.00
2018-08-28T13:00:57.084Z,28.30
2018-08-28T13:03:26.303Z,28.60
2018-08-28T13:05:55.465Z,28.20
2018-08-28T13:08:25.014Z,28.60
2018-08-28T13:10:54.189Z,28.40
2018-08-28T13:13:23.330Z,27.60
2018-08-28T13:15:52.444Z,26.90
2018-08-28T13:18:22.261Z,27.80
2018-08-28T13:20:51.402Z,29.00
2018-08-28T13:23:21.282Z,29.90
2018-08-28T13:25:50.501Z,30.40
2018-08-28T13:28:20.186Z,31.10
2018-08-28T13:30:49.392Z,32.30
2018-08-28T13:33:18.505Z,32.20
2018-08-28T13:35:47.620Z,32.20
2018-08-28T13:38:16.779Z,30.80
2018-08-28T13:40:46.122Z,31.40
2018-08-28T13:43:15.563Z,32.50
2018-08-28T13:45:44.742Z,32.70
2018-08-28T13:48:14.658Z,32.20
2018-08-28T13:50:43.781Z,32.50
2018-08-28T13:53:13.002Z,30.80
2018-08-28T13:55:42.098Z,30.20
2018-08-28T13:58:11.226Z,28.70
2018-08-28T14:00:40.546Z,30.20
2018-08-28T14:03:09.670Z,28.60
2018-08-28T14:05:39.098Z,29.60
2018-08-28T14:08:08.275Z,30.80
2018-08-28T14:10:37.415Z,31.00
2018-08-28T14:13:07.211Z,30.50
2018-08-28T14:15:36.407Z,31.40
2018-08-28T14:18:06.206Z,30.20
2018-08-28T14:20:35.434Z,28.50
2018-08-28T14:23:04.591Z,28.70
2018-08-28T14:25:34.703Z,30.20
2018-08-28T14:28:03.833Z,30.90
2018-08-28T14:30:33.286Z,32.20
2018-08-28T14:33:02.558Z,32.50
2018-08-28T14:35:31.851Z,32.20
2018-08-28T14:38:01.515Z,32.30
2018-08-28T14:40:30.929Z,32.10
2018-08-28T14:43:00.504Z,32.10
2018-08-28T14:45:29.742Z,31.70
2018-08-28T14:47:58.985Z,31.10
2018-08-28T14:50:28.672Z,31.10
2018-08-28T14:52:58.290Z,31.90
2018-08-28T14:55:27.551Z,32.10
2018-08-28T14:57:56.767Z,31.60
2018-08-28T15:00:25.790Z,31.70
2018-08-28T15:02:54.922Z,30.50
2018-08-28T15:05:24.253Z,29.90
2018-08-28T15:07:53.822Z,30.70
2018-08-28T15:10:22.930Z,29.80
2018-08-28T15:12:52.547Z,29.00
2018-08-28T15:15:21.731Z,29.30
2018-08-28T15:17:50.902Z,28.60
2018-08-28T15:20:20.035Z,29.40
2018-08-28T15:22:49.159Z,30.70
2018-08-28T15:25:18.314Z,30.40
2018-08-28T15:27:47.458Z,29.60
2018-08-28T15:30:16.591Z,28.60
2018-08-28T15:32:45.770Z,29.30
2018-08-28T15:35:15.027Z,30.30
2018-08-28T15:37:44.390Z,30.30
2018-08-28T15:40:13.863Z,31.20
2018-08-28T15:42:43.019Z,31.30
2018-08-28T15:45:12.194Z,30.50
2018-08-28T15:47:41.574Z,29.10
2018-08-28T15:50:10.773Z,29.00
2018-08-28T15:52:39.902Z,29.80
2018-08-28T15:55:09.067Z,30.20
2018-08-28T15:57:38.250Z,28.70
2018-08-28T16:00:08.075Z,28.80
2018-08-28T16:02:37.274Z,28.90
2018-08-28T16:05:06.997Z,28.70
2018-08-28T16:07:36.297Z,29.20
2018-08-28T16:10:05.643Z,29.30
2018-08-28T16:12:34.828Z,29.20
2018-08-28T16:15:03.977Z,28.80
2018-08-28T16:17:33.118Z,28.70
2018-08-28T16:20:02.272Z,28.40
2018-08-28T16:22:35.702Z,28.40
2018-08-28T16:25:05.130Z,28.70
2018-08-28T16:27:34.264Z,28.40
2018-08-28T16:30:03.422Z,28.60
2018-08-28T16:32:32.647Z,28.20
2018-08-28T16:35:01.924Z,27.60
2018-08-28T16:37:31.118Z,27.40
2018-08-28T16:39:59.902Z,27.20
2018-08-28T16:42:29.087Z,27.30
2018-08-28T16:44:58.214Z,26.80
2018-08-28T16:47:27.534Z,26.60
2018-08-28T16:49:56.750Z,26.40
2018-08-28T16:52:25.822Z,26.50
2018-08-28T16:54:54.949Z,26.30
2018-08-28T16:57:24.109Z,26.60
2018-08-28T16:59:53.227Z,26.50
2018-08-28T17:02:22.721Z,26.40
2018-08-28T17:04:51.877Z,26.70
2018-08-28T17:07:21.077Z,26.40
2018-08-28T17:09:51.275Z,26.00
2018-08-28T17:12:21.081Z,25.70
2018-08-28T17:14:51.041Z,25.30
2018-08-28T17:17:20.128Z,25.10
2018-08-28T17:19:49.491Z,24.80
2018-08-28T17:22:19.006Z,24.60
2018-08-28T17:24:48.843Z,24.30
2018-08-28T17:27:17.921Z,24.10
2018-08-28T17:29:47.063Z,24.10
2018-08-28T17:32:16.258Z,23.90
2018-08-28T17:34:45.562Z,23.80
2018-08-28T17:37:15.110Z,23.70
2018-08-28T17:39:44.721Z,23.50
2018-08-28T17:42:13.839Z,23.30
2018-08-28T17:44:43.258Z,23.20
2018-08-28T17:47:12.503Z,23.10
2018-08-28T17:49:41.582Z,22.90
2018-08-28T17:52:11.043Z,22.70
2018-08-28T17:54:40.537Z,22.60
2018-08-28T17:57:09.967Z,22.40
2018-08-28T17:59:39.097Z,22.50
2018-08-28T18:02:08.974Z,22.40
2018-08-28T18:04:38.087Z,22.20
2018-08-28T18:07:07.198Z,21.90
2018-08-28T18:09:36.520Z,21.70
2018-08-28T18:12:05.621Z,22.00
2018-08-28T18:14:34.862Z,21.90
2018-08-28T18:17:04.509Z,22.00
2018-08-28T18:19:34.275Z,22.20
2018-08-28T18:22:03.439Z,22.20
2018-08-28T18:24:32.582Z,21.90
2018-08-28T18:27:01.693Z,21.60
2018-08-28T18:29:30.854Z,21.20
2018-08-28T18:32:00.015Z,20.90
2018-08-28T18:34:29.374Z,20.70
2018-08-28T18:36:58.486Z,20.60
2018-08-28T18:39:27.626Z,20.40
2018-08-28T18:41:57.274Z,20.40
2018-08-28T18:44:26.653Z,20.40
2018-08-28T18:46:56.313Z,20.30
2018-08-28T18:49:25.472Z,20.10
2018-08-28T18:51:54.862Z,19.80
2018-08-28T18:54:24.003Z,19.70
2018-08-28T18:56:53.134Z,19.70
2018-08-28T18:59:22.003Z,19.70
2018-08-28T19:01:51.122Z,19.90
2018-08-28T19:04:20.275Z,19.70
2018-08-28T19:06:49.430Z,19.60
2018-08-28T19:09:19.226Z,19.50
2018-08-28T19:11:48.286Z,19.50
2018-08-28T19:14:17.426Z,19.30
2018-08-28T19:16:46.558Z,19.10
2018-08-28T19:19:15.958Z,19.10
2018-08-28T19:21:45.153Z,19.80
2018-08-28T19:24:14.294Z,19.90
2018-08-28T19:26:43.478Z,19.90
2018-08-28T19:29:12.628Z,20.20
2018-08-28T19:31:41.817Z,20.40
2018-08-28T19:34:10.962Z,20.50
2018-08-28T19:36:40.110Z,20.50
2018-08-28T19:39:09.225Z,20.40
2018-08-28T19:41:38.359Z,20.50
2018-08-28T19:44:07.536Z,20.40
2018-08-28T19:46:36.674Z,20.10
2018-08-28T19:49:06.903Z,20.00
2018-08-28T19:51:36.030Z,19.90
2018-08-28T19:54:05.197Z,19.80
2018-08-28T19:56:34.350Z,19.80
2018-08-28T19:59:03.591Z,19.60
2018-08-28T20:01:32.982Z,19.50
2018-08-28T20:04:02.239Z,19.60
2018-08-28T20:06:31.300Z,19.60
2018-08-28T20:09:00.608Z,19.40
2018-08-28T20:11:29.903Z,19.20
2018-08-28T20:13:59.025Z,19.20
2018-08-28T20:16:28.163Z,19.20
2018-08-28T20:18:57.358Z,19.10
2018-08-28T20:21:26.757Z,19.10
2018-08-28T20:23:55.897Z,19.00
2018-08-28T20:26:25.019Z,18.90
2018-08-28T20:28:54.306Z,18.80
2018-08-28T20:31:23.483Z,18.90
2018-08-28T20:33:52.633Z,18.70
2018-08-28T20:36:21.739Z,18.60
2018-08-28T20:38:50.910Z,18.60
2018-08-28T20:41:20.034Z,18.50
2018-08-28T20:43:49.178Z,18.40
2018-08-28T20:46:18.390Z,18.40
2018-08-28T20:48:47.882Z,18.30
2018-08-28T20:51:17.063Z,18.20
2018-08-28T20:53:46.298Z,18.20
2018-08-28T20:56:16.090Z,18.00
2018-08-28T20:58:46.018Z,17.80
2018-08-28T21:01:15.908Z,17.80
2018-08-28T21:03:45.935Z,17.90
2018-08-28T21:06:15.821Z,18.00
2018-08-28T21:08:45.675Z,17.90
2018-08-28T21:11:14.369Z,17.70
2018-08-28T21:13:43.585Z,17.70
2018-08-28T21:16:12.713Z,17.50
2018-08-28T21:18:41.914Z,17.50
2018-08-28T21:21:11.122Z,17.60
2018-08-28T21:23:40.255Z,17.40
2018-08-28T21:26:09.423Z,17.30
2018-08-28T21:28:38.549Z,17.20
2018-08-28T21:31:07.658Z,17.20
2018-08-28T21:33:36.841Z,17.10
2018-08-28T21:36:05.948Z,17.00
2018-08-28T21:38:35.064Z,17.00
2018-08-28T21:41:04.239Z,16.90
2018-08-28T21:43:33.778Z,16.80
2018-08-28T21:46:02.924Z,16.60
2018-08-28T21:48:32.026Z,16.50
2018-08-28T21:51:01.155Z,16.30
2018-08-28T21:53:30.302Z,16.10
2018-08-28T21:55:59.422Z,16.00
2018-08-28T21:58:28.536Z,16.00
2018-08-28T22:01:02.990Z,15.80
2018-08-28T22:03:32.357Z,15.70
2018-08-28T22:06:02.099Z,15.60
2018-08-28T22:08:31.518Z,15.60
2018-08-28T22:11:01.899Z,15.50
2018-08-28T22:13:31.285Z,15.50
2018-08-28T22:16:00.537Z,15.40
2018-08-28T22:18:31.530Z,15.50
2018-08-28T22:21:00.617Z,15.40
2018-08-28T22:23:29.721Z,15.40
2018-08-28T22:25:58.834Z,15.40
2018-08-28T22:28:27.930Z,15.60
2018-08-28T22:30:57.007Z,15.80
2018-08-28T22:33:26.306Z,15.70
2018-08-28T22:35:55.374Z,15.40
2018-08-28T22:38:24.478Z,15.40
2018-08-28T22:40:53.582Z,15.30
2018-08-28T22:43:23.770Z,15.20
2018-08-28T22:45:53.052Z,15.30
2018-08-28T22:48:22.142Z,15.30
2018-08-28T22:50:51.242Z,15.30
2018-08-28T22:53:20.369Z,15.30
2018-08-28T22:55:49.494Z,15.20
2018-08-28T22:58:18.894Z,15.10
2018-08-28T23:00:48.042Z,15.10
2018-08-28T23:03:17.120Z,15.00
2018-08-28T23:05:46.537Z,14.90
2018-08-28T23:08:15.638Z,14.90
2018-08-28T23:10:45.250Z,15.00
2018-08-28T23:13:14.347Z,15.10
2018-08-28T23:15:43.430Z,15.00
2018-08-28T23:18:12.538Z,15.10
2018-08-28T23:20:41.637Z,15.30
2018-08-28T23:23:10.762Z,15.30
2018-08-28T23:25:39.856Z,15.20
2018-08-28T23:28:08.942Z,15.10
2018-08-28T23:30:38.106Z,15.10
2018-08-28T23:33:07.206Z,15.20
2018-08-28T23:35:36.307Z,15.30
2018-08-28T23:38:05.497Z,15.40
2018-08-28T23:40:35.147Z,15.40
2018-08-28T23:43:04.278Z,15.40
2018-08-28T23:45:33.385Z,15.50
2018-08-28T23:48:02.474Z,15.40
2018-08-28T23:50:31.608Z,15.40
2018-08-28T23:53:00.694Z,15.40
2018-08-28T23:55:29.790Z,15.30
2018-08-28T23:57:59.718Z,15.30
